createdAt,value
2018-09-05T00:00:49.692Z,68.00
2018-09-05T00:03:18.224Z,67.90
2018-09-05T00:05:46.784Z,67.40
2018-09-05T00:08:15.281Z,67.00
2018-09-05T00:10:44.440Z,66.70
2018-09-05T00:15:47.941Z,66.50
2018-09-05T00:18:16.781Z,66.90
2018-09-05T00:20:46.007Z,67.10
2018-09-05T00:23:14.613Z,67.00
2018-09-05T00:25:43.177Z,66.60
2018-09-05T00:28:12.242Z,66.80
2018-09-05T00:30:40.776Z,68.10
2018-09-05T00:33:09.427Z,67.60
2018-09-05T00:35:38.639Z,67.90
2018-09-05T00:38:07.313Z,68.00
2018-09-05T00:40:36.601Z,68.00
2018-09-05T00:43:05.215Z,68.00
2018-09-05T00:45:34.043Z,68.10
2018-09-05T00:48:02.554Z,68.40
2018-09-05T00:50:31.565Z,68.50
2018-09-05T00:53:00.078Z,68.40
2018-09-05T00:55:28.627Z,68.10
2018-09-05T00:57:57.252Z,68.70
2018-09-05T01:00:26.145Z,68.80
2018-09-05T01:02:55.816Z,68.70
2018-09-05T01:05:24.454Z,68.80
2018-09-05T01:07:54.058Z,68.50
2018-09-05T01:10:22.643Z,68.30
2018-09-05T01:12:51.170Z,68.60
2018-09-05T01:15:19.653Z,68.30
2018-09-05T01:17:49.155Z,68.30
2018-09-05T01:20:17.824Z,68.40
2018-09-05T01:22:46.296Z,68.10
2018-09-05T01:25:14.916Z,68.50
2018-09-05T01:27:43.559Z,68.80
2018-09-05T01:30:12.198Z,69.10
2018-09-05T01:32:40.724Z,69.10
2018-09-05T01:35:09.533Z,68.50
2018-09-05T01:37:38.039Z,68.50
2018-09-05T01:40:06.578Z,68.30
2018-09-05T01:42:35.172Z,68.50
2018-09-05T01:45:04.442Z,68.00
2018-09-05T01:47:32.940Z,67.90
2018-09-05T01:50:01.512Z,68.00
2018-09-05T01:52:30.670Z,68.00
2018-09-05T01:54:59.207Z,67.90
2018-09-05T01:57:27.694Z,67.80
2018-09-05T01:59:56.184Z,67.50
2018-09-05T02:02:25.989Z,67.50
2018-09-05T02:04:55.091Z,67.30
2018-09-05T02:07:23.808Z,67.60
2018-09-05T02:09:53.442Z,67.70
2018-09-05T02:12:21.945Z,67.90
2018-09-05T02:14:50.473Z,68.30
2018-09-05T02:17:19.229Z,68.60
2018-09-05T02:19:47.725Z,68.90
2018-09-05T02:22:16.605Z,69.80
2018-09-05T02:24:45.180Z,69.30
2018-09-05T02:27:13.718Z,69.30
2018-09-05T02:29:42.213Z,69.40
2018-09-05T02:32:11.234Z,69.40
2018-09-05T02:34:39.744Z,69.10
2018-09-05T02:37:09.760Z,68.90
2018-09-05T02:39:40.633Z,69.00
2018-09-05T02:42:12.324Z,69.10
2018-09-05T02:44:42.033Z,68.90
2018-09-05T02:47:10.620Z,68.70
2018-09-05T02:49:39.089Z,68.80
2018-09-05T02:52:08.802Z,68.70
2018-09-05T02:54:37.280Z,68.70
2018-09-05T02:57:06.834Z,68.50
2018-09-05T02:59:35.381Z,68.50
2018-09-05T03:02:05.540Z,68.40
2018-09-05T03:04:34.350Z,68.60
2018-09-05T03:07:04.298Z,68.80
2018-09-05T03:09:33.222Z,68.70
2018-09-05T03:12:01.792Z,68.60
2018-09-05T03:14:30.331Z,68.60
2018-09-05T03:16:58.837Z,68.80
2018-09-05T03:19:27.990Z,68.80
2018-09-05T03:21:57.044Z,69.10
2018-09-05T03:24:25.773Z,69.20
2018-09-05T03:26:54.375Z,69.40
2018-09-05T03:29:23.291Z,69.30
2018-09-05T03:31:51.908Z,69.50
2018-09-05T03:34:20.500Z,69.70
2018-09-05T03:36:49.014Z,70.20
2018-09-05T03:39:18.142Z,70.20
2018-09-05T03:41:46.902Z,71.00
2018-09-05T03:44:15.467Z,71.00
2018-09-05T03:46:43.980Z,70.90
2018-09-05T03:49:12.459Z,70.90
2018-09-05T03:51:40.984Z,71.20
2018-09-05T03:54:09.485Z,71.10
2018-09-05T03:56:38.003Z,70.90
2018-09-05T03:59:06.891Z,70.90
2018-09-05T04:01:35.429Z,70.50
2018-09-05T04:04:04.998Z,70.60
2018-09-05T04:06:33.470Z,70.80
2018-09-05T04:09:02.529Z,70.50
2018-09-05T04:11:31.115Z,70.60
2018-09-05T04:13:59.862Z,71.10
2018-09-05T04:16:28.881Z,71.60
2018-09-05T04:18:57.412Z,71.70
2018-09-05T04:21:25.933Z,71.70
2018-09-05T04:23:54.431Z,71.60
2018-09-05T04:26:23.494Z,71.60
2018-09-05T04:28:52.928Z,71.40
2018-09-05T04:31:21.518Z,71.20
2018-09-05T04:33:51.577Z,70.90
2018-09-05T04:36:20.157Z,70.70
2018-09-05T04:38:49.829Z,70.30
2018-09-05T04:41:18.637Z,70.20
2018-09-05T04:43:51.846Z,70.00
2018-09-05T04:46:21.241Z,69.70
2018-09-05T04:48:50.864Z,69.30
2018-09-05T04:54:05.919Z,69.00
2018-09-05T04:56:35.372Z,68.70
2018-09-05T04:59:03.914Z,68.30
2018-09-05T05:01:33.080Z,68.00
2018-09-05T05:04:01.702Z,67.70
2018-09-05T05:06:31.682Z,67.70
2018-09-05T05:09:00.322Z,67.60
2018-09-05T05:11:29.228Z,67.70
2018-09-05T05:13:57.764Z,68.00
2018-09-05T05:16:26.812Z,68.40
2018-09-05T05:18:55.439Z,68.80
2018-09-05T05:21:24.026Z,69.00
2018-09-05T05:23:52.658Z,69.30
2018-09-05T05:26:21.239Z,69.30
2018-09-05T05:28:50.056Z,69.30
2018-09-05T05:31:18.619Z,69.40
2018-09-05T05:33:47.193Z,69.40
2018-09-05T05:36:16.209Z,69.60
2018-09-05T05:38:44.933Z,69.90
2018-09-05T05:41:17.447Z,69.50
2018-09-05T05:43:46.512Z,69.30
2018-09-05T05:46:15.145Z,68.90
2018-09-05T05:48:44.062Z,68.80
2018-09-05T05:51:13.231Z,68.60
2018-09-05T05:53:42.860Z,68.80
2018-09-05T05:56:11.349Z,68.80
2018-09-05T05:58:39.868Z,68.50
2018-09-05T06:01:08.487Z,68.50
2018-09-05T06:03:36.939Z,68.60
2018-09-05T06:06:05.597Z,68.40
2018-09-05T06:08:34.644Z,68.20
2018-09-05T06:11:03.992Z,68.10
2018-09-05T06:13:33.436Z,67.70
2018-09-05T06:16:02.073Z,67.50
2018-09-05T06:18:30.685Z,67.50
2018-09-05T06:20:59.284Z,67.20
2018-09-05T06:23:27.781Z,67.40
2018-09-05T06:25:56.335Z,67.20
2018-09-05T06:28:24.893Z,67.30
2018-09-05T06:30:53.475Z,67.20
2018-09-05T06:33:23.030Z,66.90
2018-09-05T06:35:51.552Z,66.70
2018-09-05T06:38:20.237Z,66.40
2018-09-05T06:40:48.824Z,65.50
2018-09-05T06:43:17.341Z,64.90
2018-09-05T06:45:46.062Z,64.40
2018-09-05T06:48:16.562Z,63.90
2018-09-05T06:50:45.350Z,63.70
2018-09-05T06:53:13.902Z,63.00
2018-09-05T06:55:56.609Z,63.00
2018-09-05T06:58:25.523Z,62.80
2018-09-05T07:00:54.108Z,62.70
2018-09-05T07:03:23.332Z,62.30
2018-09-05T07:05:52.250Z,61.80
2018-09-05T07:08:23.010Z,62.70
2018-09-05T07:10:52.385Z,62.50
2018-09-05T07:13:21.936Z,62.70
2018-09-05T07:15:50.992Z,62.60
2018-09-05T07:18:19.649Z,62.30
2018-09-05T07:20:48.302Z,62.30
2018-09-05T07:23:17.916Z,62.00
2018-09-05T07:25:46.563Z,61.40
2018-09-05T07:28:15.211Z,61.10
2018-09-05T07:30:44.629Z,60.90
2018-09-05T07:33:13.213Z,60.80
2018-09-05T07:35:42.060Z,60.90
2018-09-05T07:38:13.483Z,60.90
2018-09-05T07:40:42.562Z,61.00
2018-09-05T07:43:11.123Z,60.50
2018-09-05T07:45:41.753Z,60.50
2018-09-05T07:48:11.501Z,60.70
2018-09-05T07:50:40.115Z,60.20
2018-09-05T07:53:14.856Z,60.20
2018-09-05T07:55:43.372Z,60.00
2018-09-05T07:58:12.102Z,59.80
2018-09-05T08:00:47.887Z,59.80
2018-09-05T08:03:17.492Z,59.90
2018-09-05T08:05:46.094Z,59.90
2018-09-05T08:08:17.032Z,59.50
2018-09-05T08:10:45.709Z,59.00
2018-09-05T08:13:14.265Z,59.00
2018-09-05T08:15:42.858Z,58.50
2018-09-05T08:18:11.412Z,58.60
2018-09-05T08:20:39.948Z,58.10
2018-09-05T08:23:08.472Z,58.30
2018-09-05T08:25:37.033Z,58.30
2018-09-05T08:28:07.490Z,58.30
2018-09-05T08:30:36.077Z,58.70
2018-09-05T08:33:04.692Z,58.80
2018-09-05T08:35:33.702Z,58.50
2018-09-05T08:38:02.184Z,58.60
2018-09-05T08:40:31.999Z,58.50
2018-09-05T08:43:01.856Z,58.50
2018-09-05T08:45:31.813Z,58.10
2018-09-05T08:48:00.226Z,57.80
2018-09-05T08:50:29.983Z,57.30
2018-09-05T08:52:58.725Z,56.90
2018-09-05T08:55:27.229Z,57.10
2018-09-05T08:57:55.749Z,56.90
2018-09-05T09:00:24.389Z,56.60
2018-09-05T09:02:53.071Z,56.50
2018-09-05T09:05:21.694Z,56.20
2018-09-05T09:07:50.301Z,56.10
2018-09-05T09:10:18.853Z,55.80
2018-09-05T09:12:48.135Z,56.40
2018-09-05T09:15:16.742Z,55.60
2018-09-05T09:17:45.345Z,55.60
2018-09-05T09:20:14.542Z,55.50
2018-09-05T09:22:43.308Z,55.10
2018-09-05T09:25:12.359Z,55.10
2018-09-05T09:27:41.332Z,54.80
2018-09-05T09:30:09.783Z,54.90
2018-09-05T09:32:38.441Z,54.10
2018-09-05T09:35:07.428Z,54.00
2018-09-05T09:37:38.128Z,54.60
2018-09-05T09:40:07.252Z,54.40
2018-09-05T09:42:35.951Z,54.30
2018-09-05T09:45:04.546Z,54.30
2018-09-05T09:47:34.068Z,53.80
2018-09-05T09:50:02.655Z,53.40
2018-09-05T09:52:31.432Z,53.50
2018-09-05T09:55:00.019Z,53.30
2018-09-05T09:57:28.585Z,52.90
2018-09-05T09:59:57.517Z,52.80
2018-09-05T10:02:32.129Z,52.40
2018-09-05T10:05:05.831Z,52.20
2018-09-05T10:07:39.520Z,53.30
2018-09-05T10:10:13.297Z,52.30
2018-09-05T10:12:46.853Z,52.80
2018-09-05T10:15:20.683Z,52.30
2018-09-05T10:17:54.396Z,52.10
2018-09-05T10:20:22.970Z,52.60
2018-09-05T10:22:51.432Z,51.60
2018-09-05T10:25:19.930Z,51.60
2018-09-05T10:27:48.561Z,51.90
2018-09-05T10:30:17.156Z,51.60
2018-09-05T10:32:45.670Z,52.40
2018-09-05T10:35:14.144Z,51.60
2018-09-05T10:37:42.635Z,51.40
2018-09-05T10:40:11.202Z,51.10
2018-09-05T10:42:39.705Z,49.60
2018-09-05T10:45:08.305Z,48.90
2018-09-05T10:47:36.825Z,47.90
2018-09-05T10:50:05.384Z,48.10
2018-09-05T10:52:33.844Z,47.90
2018-09-05T10:55:02.378Z,48.30
2018-09-05T10:57:30.934Z,48.60
2018-09-05T10:59:59.475Z,48.40
2018-09-05T11:02:28.068Z,48.30
2018-09-05T11:04:56.608Z,48.50
2018-09-05T11:07:25.056Z,49.00
2018-09-05T11:09:53.621Z,49.00
2018-09-05T11:12:22.070Z,49.00
2018-09-05T11:14:51.628Z,48.80
2018-09-05T11:17:20.264Z,49.00
2018-09-05T11:19:49.809Z,49.20
2018-09-05T11:22:18.301Z,49.40
2018-09-05T11:24:46.796Z,49.10
2018-09-05T11:27:15.323Z,49.40
2018-09-05T11:29:43.793Z,49.10
2018-09-05T11:32:12.360Z,49.10
2018-09-05T11:34:40.901Z,48.70
2018-09-05T11:37:09.415Z,48.40
2018-09-05T11:39:37.999Z,47.90
2018-09-05T11:42:06.492Z,48.20
2018-09-05T11:44:35.062Z,48.80
2018-09-05T11:47:03.752Z,48.50
2018-09-05T11:49:32.352Z,47.50
2018-09-05T11:52:00.887Z,47.60
2018-09-05T11:54:29.397Z,46.70
2018-09-05T11:56:57.961Z,46.20
2018-09-05T11:59:26.519Z,45.50
2018-09-05T12:01:55.047Z,45.10
2018-09-05T12:04:23.601Z,45.50
2018-09-05T12:06:52.152Z,44.40
2018-09-05T12:09:25.314Z,45.20
2018-09-05T12:11:54.689Z,45.50
2018-09-05T12:14:23.203Z,44.90
2018-09-05T12:16:51.751Z,45.40
2018-09-05T12:19:20.495Z,45.90
2018-09-05T12:21:49.008Z,46.00
2018-09-05T12:24:17.500Z,46.70
2018-09-05T12:26:46.025Z,47.50
2018-09-05T12:29:14.638Z,46.40
2018-09-05T12:31:43.556Z,46.30
2018-09-05T12:34:13.880Z,46.20
2018-09-05T12:36:42.392Z,45.00
2018-09-05T12:39:12.836Z,44.50
2018-09-05T12:41:41.968Z,43.40
2018-09-05T12:44:10.680Z,44.90
2018-09-05T12:46:39.525Z,43.80
2018-09-05T12:49:08.266Z,43.10
2018-09-05T12:51:37.045Z,42.60
2018-09-05T12:54:06.074Z,42.40
2018-09-05T12:56:34.620Z,42.50
2018-09-05T12:59:03.278Z,41.60
2018-09-05T13:01:31.813Z,41.60
2018-09-05T13:04:00.466Z,42.50
2018-09-05T13:06:29.088Z,43.80
2018-09-05T13:08:57.690Z,44.40
2018-09-05T13:11:32.004Z,44.30
2018-09-05T13:14:00.602Z,44.80
2018-09-05T13:16:30.108Z,45.00
2018-09-05T13:18:58.586Z,45.40
2018-09-05T13:21:27.717Z,45.40
2018-09-05T13:23:56.540Z,45.00
2018-09-05T13:26:25.206Z,43.60
2018-09-05T13:28:53.844Z,44.20
2018-09-05T13:31:22.304Z,44.10
2018-09-05T13:33:50.816Z,44.40
2018-09-05T13:36:19.453Z,45.10
2018-09-05T13:38:47.931Z,43.10
2018-09-05T13:41:16.421Z,43.00
2018-09-05T13:43:44.997Z,43.10
2018-09-05T13:46:13.506Z,43.00
2018-09-05T13:48:42.081Z,42.90
2018-09-05T13:51:10.643Z,43.10
2018-09-05T13:53:39.278Z,44.00
2018-09-05T13:56:07.739Z,43.20
2018-09-05T13:58:36.217Z,43.30
2018-09-05T14:01:04.697Z,43.50
2018-09-05T14:03:33.278Z,43.60
2018-09-05T14:06:01.915Z,43.60
2018-09-05T14:08:30.471Z,43.40
2018-09-05T14:10:59.043Z,43.70
2018-09-05T14:13:27.604Z,43.30
2018-09-05T14:15:56.112Z,43.50
2018-09-05T14:18:24.635Z,43.50
2018-09-05T14:20:53.145Z,43.50
2018-09-05T14:23:21.718Z,42.60
2018-09-05T14:25:50.372Z,42.60
2018-09-05T14:28:18.909Z,43.00
2018-09-05T14:30:47.829Z,42.60
2018-09-05T14:33:19.259Z,43.00
2018-09-05T14:35:47.872Z,42.70
2018-09-05T14:38:16.367Z,42.90
2018-09-05T14:40:44.935Z,42.80
2018-09-05T14:43:14.496Z,43.00
2018-09-05T14:45:43.020Z,43.40
2018-09-05T14:48:12.591Z,43.60
2018-09-05T14:50:41.068Z,43.30
2018-09-05T14:53:09.641Z,43.40
2018-09-05T14:55:38.163Z,43.20
2018-09-05T14:58:18.238Z,42.80
2018-09-05T15:00:49.992Z,42.70
2018-09-05T15:03:18.638Z,42.60
2018-09-05T15:05:47.293Z,42.30
2018-09-05T15:08:15.824Z,42.00
2018-09-05T15:10:44.480Z,42.00
2018-09-05T15:13:12.994Z,41.80
2018-09-05T15:15:41.538Z,42.00
2018-09-05T15:18:10.044Z,41.90
2018-09-05T15:20:38.600Z,41.20
2018-09-05T15:23:08.127Z,41.30
2018-09-05T15:25:36.687Z,41.10
2018-09-05T15:28:05.245Z,41.30
2018-09-05T15:30:33.869Z,40.80
2018-09-05T15:33:02.398Z,40.80
2018-09-05T15:35:31.352Z,39.90
2018-09-05T15:38:04.546Z,40.20
2018-09-05T15:40:34.517Z,40.20
2018-09-05T15:43:03.700Z,39.80
2018-09-05T15:45:32.356Z,39.80
2018-09-05T15:50:52.433Z,39.30
2018-09-05T15:53:21.791Z,39.00
2018-09-05T15:58:33.214Z,39.30
2018-09-05T16:01:21.745Z,38.90
2018-09-05T16:03:56.358Z,39.30
2018-09-05T16:06:25.570Z,39.80
2018-09-05T16:08:54.245Z,39.70
2018-09-05T16:11:24.277Z,39.40
2018-09-05T16:13:53.076Z,40.20
2018-09-05T16:16:21.797Z,40.00
2018-09-05T16:18:51.501Z,39.60
2018-09-05T16:21:23.117Z,39.80
2018-09-05T16:23:52.626Z,39.80
2018-09-05T16:26:23.939Z,40.00
2018-09-05T16:29:02.491Z,40.00
2018-09-05T16:31:33.052Z,40.60
2018-09-05T16:34:09.648Z,40.30
2018-09-05T16:39:41.423Z,40.80
2018-09-05T16:42:51.587Z,41.10
2018-09-05T16:45:23.652Z,41.20
2018-09-05T16:47:54.659Z,41.40
2018-09-05T16:50:30.689Z,41.50
2018-09-05T16:53:01.916Z,41.60
2018-09-05T16:55:35.909Z,41.90
2018-09-05T16:58:12.571Z,42.20
2018-09-05T17:03:22.328Z,42.50
2018-09-05T17:05:53.570Z,42.40
2018-09-05T17:11:02.225Z,43.10
2018-09-05T17:16:13.032Z,44.30
2018-09-05T17:18:42.999Z,44.90
2018-09-05T17:21:14.490Z,45.10
2018-09-05T17:23:44.068Z,45.70
2018-09-05T17:26:12.737Z,45.80
2018-09-05T17:28:42.585Z,46.70
2018-09-05T17:31:11.367Z,47.00
2018-09-05T17:33:40.181Z,47.80
2018-09-05T17:36:13.950Z,48.60
2018-09-05T17:38:42.689Z,47.50
2018-09-05T17:41:13.152Z,48.30
2018-09-05T17:43:41.827Z,48.60
2018-09-05T17:46:10.465Z,48.40
2018-09-05T17:48:41.366Z,49.70
2018-09-05T17:51:29.307Z,49.40
2018-09-05T17:53:57.921Z,50.60
2018-09-05T17:56:26.474Z,51.40
2018-09-05T17:58:54.986Z,51.60
2018-09-05T18:01:24.717Z,52.30
2018-09-05T18:03:53.369Z,52.20
2018-09-05T18:06:22.165Z,53.10
2018-09-05T18:08:50.747Z,53.80
2018-09-05T18:11:19.362Z,55.00
2018-09-05T18:13:47.911Z,55.50
2018-09-05T18:16:16.702Z,56.50
2018-09-05T18:18:45.481Z,56.20
2018-09-05T18:21:14.020Z,57.80
2018-09-05T18:23:42.502Z,57.70
2018-09-05T18:26:11.017Z,57.70
2018-09-05T18:28:39.724Z,56.10
2018-09-05T18:31:08.652Z,57.00
2018-09-05T18:33:37.294Z,57.20
2018-09-05T18:36:05.867Z,57.90
2018-09-05T18:38:34.408Z,58.10
2018-09-05T18:41:02.883Z,57.50
2018-09-05T18:43:31.397Z,56.20
2018-09-05T18:45:59.950Z,55.90
2018-09-05T18:48:28.495Z,56.80
2018-09-05T18:50:57.002Z,58.30
2018-09-05T18:53:25.524Z,57.80
2018-09-05T18:55:55.430Z,57.30
2018-09-05T18:58:23.980Z,57.20
2018-09-05T19:00:52.597Z,56.80
2018-09-05T19:03:21.057Z,56.50
2018-09-05T19:05:49.607Z,57.40
2018-09-05T19:08:18.150Z,56.50
2018-09-05T19:10:46.732Z,57.00
2018-09-05T19:13:15.259Z,56.60
2018-09-05T19:15:43.769Z,56.00
2018-09-05T19:18:12.255Z,55.30
2018-09-05T19:20:43.262Z,55.20
2018-09-05T19:23:17.632Z,55.50
2018-09-05T19:25:46.375Z,55.40
2018-09-05T19:28:14.848Z,55.60
2018-09-05T19:30:43.739Z,56.00
2018-09-05T19:33:14.776Z,56.20
2018-09-05T19:35:45.206Z,56.90
2018-09-05T19:38:15.330Z,56.70
2018-09-05T19:40:44.238Z,57.00
2018-09-05T19:43:13.016Z,57.50
2018-09-05T19:45:42.282Z,57.20
2018-09-05T19:48:12.818Z,57.50
2018-09-05T19:50:41.457Z,57.60
2018-09-05T19:53:09.959Z,57.80
2018-09-05T19:55:41.442Z,57.70
2018-09-05T19:58:32.957Z,58.00
2018-09-05T20:01:01.990Z,57.20
2018-09-05T20:03:36.071Z,57.30
2018-09-05T20:06:05.162Z,57.30
2018-09-05T20:08:35.461Z,57.30
2018-09-05T20:11:04.509Z,57.20
2018-09-05T20:13:33.096Z,57.20
2018-09-05T20:16:01.630Z,57.60
2018-09-05T20:18:30.693Z,57.20
2018-09-05T20:21:04.550Z,57.50
2018-09-05T20:26:14.178Z,57.70
2018-09-05T20:31:24.834Z,57.90
2018-09-05T20:35:05.465Z,58.40
2018-09-05T20:46:46.532Z,57.70
2018-09-05T20:54:04.439Z,58.20
2018-09-05T20:56:45.764Z,58.60
2018-09-05T20:59:20.722Z,59.00
2018-09-05T21:02:00.721Z,59.10
2018-09-05T21:16:24.351Z,59.50
2018-09-05T21:18:53.286Z,60.20
2018-09-05T21:21:33.336Z,60.80
2018-09-05T21:24:14.153Z,61.00
2018-09-05T21:30:13.203Z,62.10
2018-09-05T21:33:02.586Z,62.10
2018-09-05T21:35:32.468Z,61.40
2018-09-05T21:38:03.881Z,61.00
2018-09-05T21:40:33.361Z,61.00
2018-09-05T21:43:03.984Z,61.20
2018-09-05T21:45:33.643Z,60.60
2018-09-05T22:03:01.049Z,60.00
2018-09-05T22:05:32.762Z,59.60
2018-09-05T22:08:02.712Z,59.50
2018-09-05T22:17:20.720Z,59.60
2018-09-05T22:20:06.688Z,59.30
2018-09-05T22:22:35.893Z,59.70
2018-09-05T22:27:39.995Z,59.80
2018-09-05T22:30:09.127Z,59.70
2018-09-05T22:32:41.774Z,59.60
2018-09-05T22:35:11.661Z,59.40
2018-09-05T22:37:42.087Z,59.40
2018-09-05T22:40:13.677Z,59.40
2018-09-05T22:42:53.319Z,59.30
2018-09-05T22:45:33.113Z,59.20
2018-09-05T22:48:27.721Z,59.00
2018-09-05T22:53:15.644Z,59.00
2018-09-05T22:58:00.675Z,58.80
2018-09-05T23:02:48.306Z,59.10
2018-09-05T23:07:33.506Z,59.20
2018-09-05T23:10:24.009Z,59.70
2018-09-05T23:13:04.890Z,59.80
2018-09-05T23:15:45.743Z,60.00
2018-09-05T23:20:30.141Z,60.00
2018-09-05T23:23:09.970Z,60.00
2018-09-05T23:25:41.863Z,60.50
2018-09-05T23:28:11.051Z,60.50
2018-09-05T23:30:39.976Z,60.50
2018-09-05T23:33:10.095Z,60.30
2018-09-05T23:35:43.197Z,60.40
2018-09-05T23:38:12.417Z,60.50
2018-09-05T23:40:44.569Z,60.40
2018-09-05T23:43:14.743Z,60.40
2018-09-05T23:45:52.576Z,60.50
2018-09-05T23:48:22.242Z,60.90
2018-09-05T23:50:51.120Z,61.00
2018-09-05T23:53:20.225Z,61.30
2018-09-05T23:55:49.771Z,61.20
2018-09-05T23:58:20.027Z,60.90
